This is the latest recevied weather packets stored in our database for station/object K5KVN. If no packets are shown the sender has not sent any weather packets the latest 10 day(s).
| Time | Temp. | Humidity | Pressure | Rain* | Wind** | Luminosity | Snow |
|---|---|---|---|---|---|---|---|
| 1787688954 | 36.67° C | 47% | 1015.1 hPa | 0 mm | - | - | - |
| 1787688354 | 36.11° C | 47% | 1015.1 hPa | 0 mm | - | - | - |
| 1787687753 | 36.11° C | 44% | 1015.3 hPa | 0 mm | - | - | - |
| 1787687151 | 36.11° C | 45% | 1015.3 hPa | 0 mm | - | - | - |
| 1787686551 | 36.11° C | 45% | 1015.3 hPa | 0 mm | - | - | - |
| 1787685950 | 36.11° C | 45% | 1015.4 hPa | 0 mm | - | - | - |
| 1787685348 | 36.11° C | 46% | 1015.5 hPa | 0 mm | - | - | - |
| 1787684748 | 35.56° C | 47% | 1015.4 hPa | 0 mm | - | - | - |
| 1787684146 | 35.56° C | 48% | 1015.4 hPa | 0 mm | - | - | - |
| 1787683547 | 35.56° C | 48% | 1015.6 hPa | 0 mm | - | - | - |
| 1787683008 | 35.56° C | 47% | 1015.6 hPa | 0 mm | - | - | - |
| 1787682348 | 35.56° C | 47% | 1015.6 hPa | 0 mm | - | - | - |
| 1787681746 | 35° C | 48% | 1015.7 hPa | 0 mm | - | - | - |
| 1787681147 | 35.56° C | 50% | 1015.7 hPa | 0 mm | - | - | - |
| 1787680548 | 35° C | 53% | 1015.8 hPa | 0 mm | - | - | - |
| 1787679946 | 35° C | 52% | 1016.1 hPa | 0 mm | - | - | - |
| 1787679342 | 35° C | 49% | 1016.4 hPa | 0 mm | - | - | - |
| 1787678742 | 34.44° C | 51% | 1016.4 hPa | 0 mm | - | - | - |
| 1787678138 | 33.89° C | 52% | 1016.5 hPa | 0 mm | - | - | - |
| 1787677538 | 33.33° C | 51% | 1016.5 hPa | 0 mm | - | - | - |
| 1787676938 | 33.33° C | 56% | 1016.5 hPa | 0 mm | - | - | - |
| 1787676340 | 32.78° C | 57% | 1016.6 hPa | 0 mm | - | - | - |
| 1787675737 | 32.78° C | 60% | 1016.7 hPa | 0 mm | - | - | - |
| 1787675134 | 32.22° C | 59% | 1016.9 hPa | 0 mm | - | - | - |
| 1787674534 | 31.67° C | 61% | 1016.8 hPa | 0 mm | - | - | - |
* Rain latest hour (hover to see other rain measurements)
** Current wind speed in m/s (hover to see current wind gust speed)